sensor_id;sensor_type;location;lat;lon;timestamp;pressure;altitude;pressure_sealevel;temperature;humidity
56719;BME280;42597;40.636;0.278;2023-03-22T00:00:27;97358.34;;;13.07;84.88
56719;BME280;42597;40.636;0.278;2023-03-22T00:02:54;97352.84;;;12.84;85.44
56719;BME280;42597;40.636;0.278;2023-03-22T00:05:21;97336.97;;;12.67;85.22
56719;BME280;42597;40.636;0.278;2023-03-22T00:07:46;97331.56;;;12.67;84.69
56719;BME280;42597;40.636;0.278;2023-03-22T00:10:15;97334.69;;;12.69;82.65
56719;BME280;42597;40.636;0.278;2023-03-22T00:12:41;97328.63;;;12.41;82.66
56719;BME280;42597;40.636;0.278;2023-03-22T00:15:07;97326.03;;;12.99;81.64
56719;BME280;42597;40.636;0.278;2023-03-22T00:17:33;97319.03;;;13.37;79.81
56719;BME280;42597;40.636;0.278;2023-03-22T00:20:02;97313.53;;;13.33;79.16
56719;BME280;42597;40.636;0.278;2023-03-22T00:22:31;97314.41;;;13.60;76.18
56719;BME280;42597;40.636;0.278;2023-03-22T00:24:57;97311.09;;;13.70;73.89
56719;BME280;42597;40.636;0.278;2023-03-22T00:27:22;97314.16;;;13.26;72.44
56719;BME280;42597;40.636;0.278;2023-03-22T00:29:50;97305.97;;;14.11;72.79
56719;BME280;42597;40.636;0.278;2023-03-22T00:32:16;97301.00;;;13.71;71.83
56719;BME280;42597;40.636;0.278;2023-03-22T00:34:42;97304.88;;;14.69;76.85
56719;BME280;42597;40.636;0.278;2023-03-22T00:37:07;97304.13;;;15.02;75.82
56719;BME280;42597;40.636;0.278;2023-03-22T00:39:33;97307.66;;;13.73;67.75
56719;BME280;42597;40.636;0.278;2023-03-22T00:41:58;97308.16;;;12.98;65.42
56719;BME280;42597;40.636;0.278;2023-03-22T00:44:24;97307.59;;;13.08;66.22
56719;BME280;42597;40.636;0.278;2023-03-22T00:46:50;97305.63;;;13.24;63.47
56719;BME280;42597;40.636;0.278;2023-03-22T00:49:15;97313.28;;;14.07;71.64
56719;BME280;42597;40.636;0.278;2023-03-22T00:51:41;97298.72;;;14.22;71.61
56719;BME280;42597;40.636;0.278;2023-03-22T00:54:06;97294.13;;;14.26;67.19
56719;BME280;42597;40.636;0.278;2023-03-22T00:56:32;97290.63;;;14.49;75.67
56719;BME280;42597;40.636;0.278;2023-03-22T00:58:58;97293.47;;;14.90;71.00
56719;BME280;42597;40.636;0.278;2023-03-22T01:01:24;97297.41;;;13.63;62.28
56719;BME280;42597;40.636;0.278;2023-03-22T01:03:50;97294.13;;;14.26;69.94
56719;BME280;42597;40.636;0.278;2023-03-22T01:06:15;97288.97;;;13.68;67.39
56719;BME280;42597;40.636;0.278;2023-03-22T01:08:41;97286.41;;;14.28;69.07
56719;BME280;42597;40.636;0.278;2023-03-22T01:11:07;97283.06;;;14.65;70.17
56719;BME280;42597;40.636;0.278;2023-03-22T01:13:34;97285.91;;;13.50;58.69
56719;BME280;42597;40.636;0.278;2023-03-22T01:16:05;97281.72;;;13.76;62.45
56719;BME280;42597;40.636;0.278;2023-03-22T01:18:31;97278.03;;;12.64;60.04
56719;BME280;42597;40.636;0.278;2023-03-22T01:20:58;97271.03;;;13.41;63.04
56719;BME280;42597;40.636;0.278;2023-03-22T01:23:23;97272.50;;;14.33;71.64
56719;BME280;42597;40.636;0.278;2023-03-22T01:25:49;97266.53;;;14.51;61.90
56719;BME280;42597;40.636;0.278;2023-03-22T01:28:15;97266.84;;;14.72;68.26
56719;BME280;42597;40.636;0.278;2023-03-22T01:30:40;97260.56;;;14.68;61.18
56719;BME280;42597;40.636;0.278;2023-03-22T01:33:06;97254.78;;;15.07;68.75
56719;BME280;42597;40.636;0.278;2023-03-22T01:35:32;97260.63;;;13.23;55.67
56719;BME280;42597;40.636;0.278;2023-03-22T01:37:58;97250.66;;;14.26;70.61
56719;BME280;42597;40.636;0.278;2023-03-22T01:40:26;97236.34;;;15.27;70.31
56719;BME280;42597;40.636;0.278;2023-03-22T01:42:54;97233.06;;;15.96;70.31
56719;BME280;42597;40.636;0.278;2023-03-22T01:48:26;97242.97;;;14.32;58.63
56719;BME280;42597;40.636;0.278;2023-03-22T01:51:16;97244.78;;;12.48;58.49
56719;BME280;42597;40.636;0.278;2023-03-22T01:53:48;97239.00;;;12.49;60.60
56719;BME280;42597;40.636;0.278;2023-03-22T01:56:17;97227.09;;;12.34;65.69
56719;BME280;42597;40.636;0.278;2023-03-22T01:58:43;97228.13;;;12.10;74.55
56719;BME280;42597;40.636;0.278;2023-03-22T02:01:11;97238.06;;;12.22;71.21
56719;BME280;42597;40.636;0.278;2023-03-22T02:06:05;97227.19;;;12.03;74.34
56719;BME280;42597;40.636;0.278;2023-03-22T02:08:31;97226.78;;;12.20;78.55
56719;BME280;42597;40.636;0.278;2023-03-22T02:10:59;97229.72;;;11.96;84.23
56719;BME280;42597;40.636;0.278;2023-03-22T02:27:41;97217.84;;;12.35;78.12
56719;BME280;42597;40.636;0.278;2023-03-22T02:31:17;97207.25;;;12.89;73.97
56719;BME280;42597;40.636;0.278;2023-03-22T02:36:11;97213.28;;;12.40;74.84
56719;BME280;42597;40.636;0.278;2023-03-22T02:47:00;97208.28;;;12.61;76.21
56719;BME280;42597;40.636;0.278;2023-03-22T02:52:15;97205.28;;;14.00;76.14
56719;BME280;42597;40.636;0.278;2023-03-22T02:54:54;97212.03;;;13.38;67.49
56719;BME280;42597;40.636;0.278;2023-03-22T02:57:32;97205.13;;;12.20;71.17
56719;BME280;42597;40.636;0.278;2023-03-22T03:00:04;97215.50;;;11.99;73.94
56719;BME280;42597;40.636;0.278;2023-03-22T03:02:35;97203.84;;;12.72;76.66
56719;BME280;42597;40.636;0.278;2023-03-22T03:05:02;97210.75;;;12.70;75.63
56719;BME280;42597;40.636;0.278;2023-03-22T03:07:29;97211.53;;;12.70;77.91
56719;BME280;42597;40.636;0.278;2023-03-22T03:09:55;97215.94;;;12.20;80.39
56719;BME280;42597;40.636;0.278;2023-03-22T03:12:25;97207.13;;;12.81;80.12
56719;BME280;42597;40.636;0.278;2023-03-22T03:14:52;97214.13;;;12.82;82.56
56719;BME280;42597;40.636;0.278;2023-03-22T03:23:32;97204.84;;;12.45;87.37
56719;BME280;42597;40.636;0.278;2023-03-22T03:26:26;97201.16;;;12.53;87.79
56719;BME280;42597;40.636;0.278;2023-03-22T03:31:48;97200.59;;;12.63;87.87
56719;BME280;42597;40.636;0.278;2023-03-22T03:34:25;97203.44;;;12.51;76.65
56719;BME280;42597;40.636;0.278;2023-03-22T03:37:01;97210.09;;;11.67;73.62
56719;BME280;42597;40.636;0.278;2023-03-22T03:39:31;97217.44;;;11.51;72.77
56719;BME280;42597;40.636;0.278;2023-03-22T03:41:58;97209.81;;;11.41;72.07
56719;BME280;42597;40.636;0.278;2023-03-22T03:44:25;97202.34;;;11.34;72.00
56719;BME280;42597;40.636;0.278;2023-03-22T03:46:51;97198.72;;;11.77;76.38
56719;BME280;42597;40.636;0.278;2023-03-22T03:49:19;97195.38;;;12.35;77.42
56719;BME280;42597;40.636;0.278;2023-03-22T03:51:51;97201.06;;;12.10;78.18
56719;BME280;42597;40.636;0.278;2023-03-22T03:54:17;97201.59;;;12.74;79.64
56719;BME280;42597;40.636;0.278;2023-03-22T03:56:43;97198.06;;;13.36;80.89
56719;BME280;42597;40.636;0.278;2023-03-22T03:59:08;97194.06;;;13.52;78.46
56719;BME280;42597;40.636;0.278;2023-03-22T04:01:34;97188.88;;;13.44;74.30
56719;BME280;42597;40.636;0.278;2023-03-22T04:04:00;97199.16;;;14.07;77.80
56719;BME280;42597;40.636;0.278;2023-03-22T04:06:26;97185.75;;;14.21;78.69
56719;BME280;42597;40.636;0.278;2023-03-22T04:08:52;97197.59;;;13.79;72.79
56719;BME280;42597;40.636;0.278;2023-03-22T04:11:21;97196.41;;;13.54;78.25
56719;BME280;42597;40.636;0.278;2023-03-22T04:13:46;97194.66;;;13.19;77.31
56719;BME280;42597;40.636;0.278;2023-03-22T04:16:12;97207.94;;;13.24;76.16
56719;BME280;42597;40.636;0.278;2023-03-22T04:18:37;97197.53;;;13.07;78.00
56719;BME280;42597;40.636;0.278;2023-03-22T04:21:03;97205.16;;;13.01;79.39
56719;BME280;42597;40.636;0.278;2023-03-22T04:23:29;97197.09;;;12.43;74.84
56719;BME280;42597;40.636;0.278;2023-03-22T04:25:57;97199.38;;;12.60;79.79
56719;BME280;42597;40.636;0.278;2023-03-22T04:28:24;97197.56;;;12.29;72.51
56719;BME280;42597;40.636;0.278;2023-03-22T04:30:51;97197.81;;;13.02;74.32
56719;BME280;42597;40.636;0.278;2023-03-22T04:33:18;97192.16;;;12.29;73.26
56719;BME280;42597;40.636;0.278;2023-03-22T04:35:44;97201.28;;;12.60;76.32
56719;BME280;42597;40.636;0.278;2023-03-22T04:38:12;97202.38;;;12.01;76.60
56719;BME280;42597;40.636;0.278;2023-03-22T04:40:38;97211.28;;;12.56;77.10
56719;BME280;42597;40.636;0.278;2023-03-22T04:43:10;97202.75;;;12.96;79.94
56719;BME280;42597;40.636;0.278;2023-03-22T04:45:36;97194.72;;;13.69;79.42
56719;BME280;42597;40.636;0.278;2023-03-22T04:48:01;97200.13;;;13.00;75.91
56719;BME280;42597;40.636;0.278;2023-03-22T04:50:27;97198.03;;;12.93;78.82
56719;BME280;42597;40.636;0.278;2023-03-22T04:52:53;97199.28;;;12.76;71.54
56719;BME280;42597;40.636;0.278;2023-03-22T04:55:18;97203.28;;;12.24;75.50
56719;BME280;42597;40.636;0.278;2023-03-22T04:57:44;97201.91;;;12.92;81.30
56719;BME280;42597;40.636;0.278;2023-03-22T05:00:10;97205.03;;;12.94;72.84
56719;BME280;42597;40.636;0.278;2023-03-22T05:02:36;97211.69;;;12.58;74.33
56719;BME280;42597;40.636;0.278;2023-03-22T05:05:05;97217.94;;;11.72;74.35
56719;BME280;42597;40.636;0.278;2023-03-22T05:07:31;97218.44;;;12.29;81.24
56719;BME280;42597;40.636;0.278;2023-03-22T05:09:57;97211.38;;;13.02;79.61
56719;BME280;42597;40.636;0.278;2023-03-22T05:12:23;97200.91;;;13.69;79.97
56719;BME280;42597;40.636;0.278;2023-03-22T05:14:48;97203.53;;;12.97;76.08
56719;BME280;42597;40.636;0.278;2023-03-22T05:17:14;97205.97;;;12.24;78.52
56719;BME280;42597;40.636;0.278;2023-03-22T05:19:40;97201.75;;;13.04;80.19
56719;BME280;42597;40.636;0.278;2023-03-22T05:22:06;97198.94;;;12.39;77.20
56719;BME280;42597;40.636;0.278;2023-03-22T05:24:32;97197.94;;;13.28;77.00
56719;BME280;42597;40.636;0.278;2023-03-22T05:26:57;97200.84;;;12.77;70.54
56719;BME280;42597;40.636;0.278;2023-03-22T05:29:26;97207.38;;;11.67;62.42
56719;BME280;42597;40.636;0.278;2023-03-22T05:31:52;97206.16;;;11.33;63.14
56719;BME280;42597;40.636;0.278;2023-03-22T05:34:18;97210.25;;;11.74;64.39
56719;BME280;42597;40.636;0.278;2023-03-22T05:36:44;97199.78;;;11.89;64.98
56719;BME280;42597;40.636;0.278;2023-03-22T05:39:11;97205.38;;;11.64;62.36
56719;BME280;42597;40.636;0.278;2023-03-22T05:41:39;97203.28;;;11.42;62.29
56719;BME280;42597;40.636;0.278;2023-03-22T05:44:05;97206.06;;;11.61;64.00
56719;BME280;42597;40.636;0.278;2023-03-22T05:46:30;97199.63;;;11.18;61.76
56719;BME280;42597;40.636;0.278;2023-03-22T05:48:56;97213.03;;;10.71;62.40
56719;BME280;42597;40.636;0.278;2023-03-22T05:51:22;97212.00;;;10.75;62.34
56719;BME280;42597;40.636;0.278;2023-03-22T05:53:49;97210.03;;;10.88;61.58
56719;BME280;42597;40.636;0.278;2023-03-22T05:56:17;97216.34;;;11.08;61.98
56719;BME280;42597;40.636;0.278;2023-03-22T05:58:46;97210.25;;;12.25;75.91
56719;BME280;42597;40.636;0.278;2023-03-22T06:01:12;97212.84;;;12.57;67.90
56719;BME280;42597;40.636;0.278;2023-03-22T06:03:41;97209.31;;;13.38;74.88
56719;BME280;42597;40.636;0.278;2023-03-22T06:06:07;97212.19;;;12.25;65.62
56719;BME280;42597;40.636;0.278;2023-03-22T06:08:35;97220.63;;;11.25;59.97
56719;BME280;42597;40.636;0.278;2023-03-22T06:11:02;97224.91;;;11.89;62.50
56719;BME280;42597;40.636;0.278;2023-03-22T06:13:28;97224.22;;;11.76;63.87
56719;BME280;42597;40.636;0.278;2023-03-22T06:15:57;97233.66;;;11.82;69.54
56719;BME280;42597;40.636;0.278;2023-03-22T06:18:23;97224.28;;;14.00;76.39
56719;BME280;42597;40.636;0.278;2023-03-22T06:20:49;97225.97;;;13.59;69.84
56719;BME280;42597;40.636;0.278;2023-03-22T06:23:15;97227.47;;;11.82;61.76
56719;BME280;42597;40.636;0.278;2023-03-22T06:25:40;97229.28;;;11.94;65.90
56719;BME280;42597;40.636;0.278;2023-03-22T06:28:06;97237.16;;;11.67;66.83
56719;BME280;42597;40.636;0.278;2023-03-22T06:30:32;97236.13;;;10.96;70.58
56719;BME280;42597;40.636;0.278;2023-03-22T06:32:57;97243.59;;;11.15;72.49
56719;BME280;42597;40.636;0.278;2023-03-22T06:35:26;97236.88;;;11.72;76.66
56719;BME280;42597;40.636;0.278;2023-03-22T06:37:51;97229.22;;;12.25;78.53
56719;BME280;42597;40.636;0.278;2023-03-22T06:40:17;97229.69;;;12.47;76.34
56719;BME280;42597;40.636;0.278;2023-03-22T06:42:42;97233.66;;;12.53;75.92
56719;BME280;42597;40.636;0.278;2023-03-22T06:45:08;97236.19;;;12.07;75.84
56719;BME280;42597;40.636;0.278;2023-03-22T06:47:34;97241.50;;;11.72;77.79
56719;BME280;42597;40.636;0.278;2023-03-22T06:50:00;97239.66;;;12.43;79.72
56719;BME280;42597;40.636;0.278;2023-03-22T06:52:26;97248.06;;;12.96;76.94
56719;BME280;42597;40.636;0.278;2023-03-22T06:54:51;97231.25;;;14.85;75.46
56719;BME280;42597;40.636;0.278;2023-03-22T06:57:17;97239.00;;;16.09;68.83
56719;BME280;42597;40.636;0.278;2023-03-22T06:59:43;97239.63;;;16.50;66.22
56719;BME280;42597;40.636;0.278;2023-03-22T07:02:12;97232.69;;;16.63;65.17
56719;BME280;42597;40.636;0.278;2023-03-22T07:04:38;97237.66;;;15.03;60.82
56719;BME280;42597;40.636;0.278;2023-03-22T07:07:04;97252.63;;;13.11;63.75
56719;BME280;42597;40.636;0.278;2023-03-22T07:09:30;97255.91;;;12.62;65.78
56719;BME280;42597;40.636;0.278;2023-03-22T07:11:56;97253.44;;;12.92;67.13
56719;BME280;42597;40.636;0.278;2023-03-22T07:14:21;97252.94;;;12.48;69.20
56719;BME280;42597;40.636;0.278;2023-03-22T07:16:47;97241.50;;;14.38;76.61
56719;BME280;42597;40.636;0.278;2023-03-22T07:19:13;97242.59;;;16.23;67.22
56719;BME280;42597;40.636;0.278;2023-03-22T07:21:39;97243.22;;;16.61;64.98
56719;BME280;42597;40.636;0.278;2023-03-22T07:24:05;97249.50;;;16.72;64.19
56719;BME280;42597;40.636;0.278;2023-03-22T07:26:33;97249.38;;;15.89;63.55
56719;BME280;42597;40.636;0.278;2023-03-22T07:28:59;97268.47;;;12.90;77.36
56719;BME280;42597;40.636;0.278;2023-03-22T07:31:24;97279.38;;;12.35;82.97
56719;BME280;42597;40.636;0.278;2023-03-22T07:33:50;97281.13;;;12.27;85.30
56719;BME280;42597;40.636;0.278;2023-03-22T07:36:16;97276.91;;;11.95;88.06
56719;BME280;42597;40.636;0.278;2023-03-22T07:38:48;97281.41;;;12.22;87.39
56719;BME280;42597;40.636;0.278;2023-03-22T07:41:14;97284.72;;;12.16;87.45
56719;BME280;42597;40.636;0.278;2023-03-22T07:43:40;97281.31;;;12.19;86.98
56719;BME280;42597;40.636;0.278;2023-03-22T07:46:05;97280.19;;;12.55;85.53
56719;BME280;42597;40.636;0.278;2023-03-22T07:48:31;97280.88;;;12.52;84.62
56719;BME280;42597;40.636;0.278;2023-03-22T07:50:58;97282.91;;;12.74;85.03
56719;BME280;42597;40.636;0.278;2023-03-22T07:53:24;97292.31;;;12.80;85.13
56719;BME280;42597;40.636;0.278;2023-03-22T07:55:50;97288.34;;;12.74;85.77
56719;BME280;42597;40.636;0.278;2023-03-22T07:58:16;97287.19;;;12.95;84.47
56719;BME280;42597;40.636;0.278;2023-03-22T08:00:42;97293.03;;;13.16;78.61
56719;BME280;42597;40.636;0.278;2023-03-22T08:03:10;97290.47;;;13.04;78.34
56719;BME280;42597;40.636;0.278;2023-03-22T08:05:39;97289.03;;;13.10;77.38
56719;BME280;42597;40.636;0.278;2023-03-22T08:08:05;97290.31;;;13.16;75.41
56719;BME280;42597;40.636;0.278;2023-03-22T08:10:31;97297.59;;;13.12;76.15
56719;BME280;42597;40.636;0.278;2023-03-22T08:12:57;97293.19;;;13.23;74.69
56719;BME280;42597;40.636;0.278;2023-03-22T08:15:23;97293.59;;;13.06;75.13
56719;BME280;42597;40.636;0.278;2023-03-22T08:17:48;97300.44;;;12.80;75.66
56719;BME280;42597;40.636;0.278;2023-03-22T08:20:14;97296.13;;;13.15;73.43
56719;BME280;42597;40.636;0.278;2023-03-22T08:22:43;97289.22;;;13.21;74.51
56719;BME280;42597;40.636;0.278;2023-03-22T08:25:09;97296.88;;;13.34;73.64
56719;BME280;42597;40.636;0.278;2023-03-22T08:27:35;97298.31;;;13.09;74.88
56719;BME280;42597;40.636;0.278;2023-03-22T08:30:01;97299.75;;;13.03;74.35
56719;BME280;42597;40.636;0.278;2023-03-22T08:32:28;97298.31;;;13.28;73.79
56719;BME280;42597;40.636;0.278;2023-03-22T08:34:53;97301.50;;;13.53;74.42
56719;BME280;42597;40.636;0.278;2023-03-22T08:37:19;97308.03;;;14.21;69.55
56719;BME280;42597;40.636;0.278;2023-03-22T08:39:45;97308.75;;;13.69;72.06
56719;BME280;42597;40.636;0.278;2023-03-22T08:42:11;97308.81;;;13.72;71.62
56719;BME280;42597;40.636;0.278;2023-03-22T08:44:36;97297.63;;;13.54;74.07
56719;BME280;42597;40.636;0.278;2023-03-22T08:47:02;97301.91;;;13.78;76.15
56719;BME280;42597;40.636;0.278;2023-03-22T08:49:28;97300.00;;;13.56;76.68
56719;BME280;42597;40.636;0.278;2023-03-22T08:51:54;97298.00;;;13.76;77.35
56719;BME280;42597;40.636;0.278;2023-03-22T08:54:22;97297.34;;;13.60;78.11
56719;BME280;42597;40.636;0.278;2023-03-22T08:56:49;97295.88;;;13.89;77.35
56719;BME280;42597;40.636;0.278;2023-03-22T08:59:15;97296.59;;;13.86;77.69
56719;BME280;42597;40.636;0.278;2023-03-22T09:01:40;97304.88;;;13.93;76.21
56719;BME280;42597;40.636;0.278;2023-03-22T09:04:06;97297.97;;;13.99;74.52
56719;BME280;42597;40.636;0.278;2023-03-22T09:06:32;97292.50;;;14.22;74.01
56719;BME280;42597;40.636;0.278;2023-03-22T09:08:58;97304.09;;;14.15;75.14
56719;BME280;42597;40.636;0.278;2023-03-22T09:11:25;97296.34;;;14.17;75.99
56719;BME280;42597;40.636;0.278;2023-03-22T09:13:50;97299.47;;;14.19;76.28
56719;BME280;42597;40.636;0.278;2023-03-22T09:16:17;97294.97;;;14.30;75.39
56719;BME280;42597;40.636;0.278;2023-03-22T09:18:43;97296.63;;;14.39;76.11
56719;BME280;42597;40.636;0.278;2023-03-22T09:21:09;97300.84;;;14.59;74.74
56719;BME280;42597;40.636;0.278;2023-03-22T09:23:36;97293.53;;;14.37;74.37
56719;BME280;42597;40.636;0.278;2023-03-22T09:26:07;97302.91;;;14.43;74.78
56719;BME280;42597;40.636;0.278;2023-03-22T09:28:34;97298.13;;;14.32;75.46
56719;BME280;42597;40.636;0.278;2023-03-22T09:31:05;97295.59;;;14.47;75.98
56719;BME280;42597;40.636;0.278;2023-03-22T09:33:32;97292.88;;;14.47;74.98
56719;BME280;42597;40.636;0.278;2023-03-22T09:35:58;97291.63;;;14.67;77.21
56719;BME280;42597;40.636;0.278;2023-03-22T09:38:24;97283.59;;;15.08;73.76
56719;BME280;42597;40.636;0.278;2023-03-22T09:40:59;97291.97;;;14.92;73.27
56719;BME280;42597;40.636;0.278;2023-03-22T09:43:30;97287.03;;;14.71;74.84
56719;BME280;42597;40.636;0.278;2023-03-22T09:45:57;97280.69;;;14.94;73.48
56719;BME280;42597;40.636;0.278;2023-03-22T09:48:30;97274.59;;;15.04;73.87
56719;BME280;42597;40.636;0.278;2023-03-22T09:50:59;97270.91;;;15.23;73.99
56719;BME280;42597;40.636;0.278;2023-03-22T09:53:26;97267.53;;;15.33;74.02
56719;BME280;42597;40.636;0.278;2023-03-22T10:01:38;97265.94;;;15.28;71.74
56719;BME280;42597;40.636;0.278;2023-03-22T10:04:29;97256.16;;;15.27;71.95
56719;BME280;42597;40.636;0.278;2023-03-22T10:07:08;97264.28;;;15.61;71.71
56719;BME280;42597;40.636;0.278;2023-03-22T10:12:25;97269.53;;;17.05;64.51
56719;BME280;42597;40.636;0.278;2023-03-22T10:15:15;97264.72;;;16.73;65.40
56719;BME280;42597;40.636;0.278;2023-03-22T10:17:47;97261.94;;;16.00;66.98
56719;BME280;42597;40.636;0.278;2023-03-22T10:20:28;97267.22;;;15.83;69.44
56719;BME280;42597;40.636;0.278;2023-03-22T10:23:00;97263.09;;;16.03;66.81
56719;BME280;42597;40.636;0.278;2023-03-22T10:25:34;97265.75;;;15.96;68.75
56719;BME280;42597;40.636;0.278;2023-03-22T10:28:01;97267.66;;;16.47;66.80
56719;BME280;42597;40.636;0.278;2023-03-22T10:30:36;97269.84;;;16.23;67.41
56719;BME280;42597;40.636;0.278;2023-03-22T10:33:13;97270.53;;;16.06;68.16
56719;BME280;42597;40.636;0.278;2023-03-22T10:35:42;97265.63;;;16.29;66.92
56719;BME280;42597;40.636;0.278;2023-03-22T10:38:22;97267.75;;;16.02;66.63
56719;BME280;42597;40.636;0.278;2023-03-22T10:40:52;97269.03;;;16.19;65.79
56719;BME280;42597;40.636;0.278;2023-03-22T10:45:47;97268.50;;;16.58;62.36
56719;BME280;42597;40.636;0.278;2023-03-22T10:48:27;97269.16;;;16.34;63.32
56719;BME280;42597;40.636;0.278;2023-03-22T10:50:54;97268.66;;;16.87;61.08
56719;BME280;42597;40.636;0.278;2023-03-22T10:56:00;97268.50;;;16.58;60.91
56719;BME280;42597;40.636;0.278;2023-03-22T10:58:30;97269.75;;;16.71;60.76
56719;BME280;42597;40.636;0.278;2023-03-22T11:01:06;97273.63;;;16.70;59.11
56719;BME280;42597;40.636;0.278;2023-03-22T11:03:36;97268.34;;;17.02;59.32
56719;BME280;42597;40.636;0.278;2023-03-22T11:06:24;97276.47;;;16.88;58.90
56719;BME280;42597;40.636;0.278;2023-03-22T11:09:15;97276.84;;;16.83;59.44
56719;BME280;42597;40.636;0.278;2023-03-22T11:11:52;97268.31;;;16.99;60.03
56719;BME280;42597;40.636;0.278;2023-03-22T11:14:42;97275.75;;;16.98;57.66
56719;BME280;42597;40.636;0.278;2023-03-22T11:17:10;97266.81;;;17.16;58.19
56719;BME280;42597;40.636;0.278;2023-03-22T11:19:50;97269.53;;;17.05;58.98
56719;BME280;42597;40.636;0.278;2023-03-22T11:24:58;97264.09;;;17.19;60.15
56719;BME280;42597;40.636;0.278;2023-03-22T11:27:26;97267.25;;;17.36;60.04
56719;BME280;42597;40.636;0.278;2023-03-22T11:29:57;97260.25;;;17.35;59.95
56719;BME280;42597;40.636;0.278;2023-03-22T11:32:31;97261.00;;;17.28;59.68
56719;BME280;42597;40.636;0.278;2023-03-22T11:35:23;97262.22;;;17.48;58.74
56719;BME280;42597;40.636;0.278;2023-03-22T11:37:54;97261.75;;;17.11;58.55
56719;BME280;42597;40.636;0.278;2023-03-22T11:40:31;97260.97;;;17.24;57.60
56719;BME280;42597;40.636;0.278;2023-03-22T11:43:21;97264.97;;;17.45;57.02
56719;BME280;42597;40.636;0.278;2023-03-22T11:45:51;97261.44;;;17.48;55.34
56719;BME280;42597;40.636;0.278;2023-03-22T11:48:21;97256.34;;;17.43;53.77
56719;BME280;42597;40.636;0.278;2023-03-22T11:50:48;97254.00;;;17.48;54.83
56719;BME280;42597;40.636;0.278;2023-03-22T11:53:22;97251.69;;;17.50;57.25
56719;BME280;42597;40.636;0.278;2023-03-22T11:55:50;97248.22;;;17.82;57.86
56719;BME280;42597;40.636;0.278;2023-03-22T11:58:27;97248.59;;;17.73;56.33
56719;BME280;42597;40.636;0.278;2023-03-22T12:00:57;97246.22;;;17.68;54.80
56719;BME280;42597;40.636;0.278;2023-03-22T12:03:28;97247.00;;;17.72;53.15
56719;BME280;42597;40.636;0.278;2023-03-22T12:05:56;97240.03;;;17.79;55.04
56719;BME280;42597;40.636;0.278;2023-03-22T12:11:16;97246.28;;;17.90;53.63
56719;BME280;42597;40.636;0.278;2023-03-22T12:13:59;97240.03;;;17.79;53.76
56719;BME280;42597;40.636;0.278;2023-03-22T12:16:39;97238.84;;;17.94;52.22
56719;BME280;42597;40.636;0.278;2023-03-22T12:19:13;97240.81;;;17.83;50.32
56719;BME280;42597;40.636;0.278;2023-03-22T12:21:42;97236.88;;;18.16;53.28
56719;BME280;42597;40.636;0.278;2023-03-22T12:24:23;97233.75;;;18.07;53.45
56719;BME280;42597;40.636;0.278;2023-03-22T12:26:49;97231.44;;;17.98;54.06
56719;BME280;42597;40.636;0.278;2023-03-22T12:29:17;97229.84;;;18.04;53.84
56719;BME280;42597;40.636;0.278;2023-03-22T12:34:18;97222.78;;;18.32;53.14
56719;BME280;42597;40.636;0.278;2023-03-22T12:36:48;97226.28;;;18.36;53.18
56719;BME280;42597;40.636;0.278;2023-03-22T12:42:37;97216.16;;;18.25;50.95
56719;BME280;42597;40.636;0.278;2023-03-22T12:45:14;97218.91;;;18.18;50.82
56719;BME280;42597;40.636;0.278;2023-03-22T12:47:45;97204.81;;;18.31;52.88
56719;BME280;42597;40.636;0.278;2023-03-22T12:52:47;97198.16;;;18.32;53.82
56719;BME280;42597;40.636;0.278;2023-03-22T12:55:37;97198.91;;;18.36;54.94
56719;BME280;42597;40.636;0.278;2023-03-22T12:58:05;97186.78;;;18.44;55.75
56719;BME280;42597;40.636;0.278;2023-03-22T13:00:37;97186.41;;;18.42;57.11
56719;BME280;42597;40.636;0.278;2023-03-22T13:03:38;97182.84;;;18.52;58.77
56719;BME280;42597;40.636;0.278;2023-03-22T13:06:27;97178.16;;;18.49;59.96
56719;BME280;42597;40.636;0.278;2023-03-22T13:20:37;97156.63;;;18.58;58.93
56719;BME280;42597;40.636;0.278;2023-03-22T13:27:58;97162.50;;;18.53;58.42
56719;BME280;42597;40.636;0.278;2023-03-22T13:30:28;97153.91;;;18.58;58.30
56719;BME280;42597;40.636;0.278;2023-03-22T13:35:58;97150.44;;;18.47;58.55
56719;BME280;42597;40.636;0.278;2023-03-22T13:38:40;97145.69;;;18.58;57.43
56719;BME280;42597;40.636;0.278;2023-03-22T13:41:07;97139.78;;;18.63;58.00
56719;BME280;42597;40.636;0.278;2023-03-22T13:43:49;97145.28;;;18.60;58.56
56719;BME280;42597;40.636;0.278;2023-03-22T13:51:29;97132.66;;;18.87;55.89
56719;BME280;42597;40.636;0.278;2023-03-22T14:05:06;97128.84;;;18.70;53.86
56719;BME280;42597;40.636;0.278;2023-03-22T14:07:49;97120.69;;;18.53;54.02
56719;BME280;42597;40.636;0.278;2023-03-22T14:10:23;97126.25;;;19.08;54.48
56719;BME280;42597;40.636;0.278;2023-03-22T14:12:58;97114.69;;;18.83;53.88
56719;BME280;42597;40.636;0.278;2023-03-22T14:15:27;97115.53;;;18.72;54.01
56719;BME280;42597;40.636;0.278;2023-03-22T14:18:02;97109.03;;;19.11;54.93
56719;BME280;42597;40.636;0.278;2023-03-22T14:20:34;97110.31;;;18.92;54.14
56719;BME280;42597;40.636;0.278;2023-03-22T14:23:15;97114.31;;;18.77;54.43
56719;BME280;42597;40.636;0.278;2023-03-22T14:25:44;97110.84;;;18.69;53.88
56719;BME280;42597;40.636;0.278;2023-03-22T14:28:20;97099.78;;;18.91;54.30
56719;BME280;42597;40.636;0.278;2023-03-22T14:30:55;97105.31;;;18.84;53.04
56719;BME280;42597;40.636;0.278;2023-03-22T14:33:21;97110.50;;;18.57;52.24
56719;BME280;42597;40.636;0.278;2023-03-22T14:36:00;97101.31;;;18.95;51.84
56719;BME280;42597;40.636;0.278;2023-03-22T14:38:35;97099.94;;;18.62;51.20
56719;BME280;42597;40.636;0.278;2023-03-22T14:41:14;97099.19;;;19.17;54.51
56719;BME280;42597;40.636;0.278;2023-03-22T14:43:42;97105.09;;;19.12;52.89
56719;BME280;42597;40.636;0.278;2023-03-22T14:46:21;97090.75;;;18.97;54.80
56719;BME280;42597;40.636;0.278;2023-03-22T14:48:55;97098.72;;;18.67;51.60
56719;BME280;42597;40.636;0.278;2023-03-22T14:51:38;97090.44;;;18.81;53.34
56719;BME280;42597;40.636;0.278;2023-03-22T14:54:26;97095.06;;;18.95;53.36
56719;BME280;42597;40.636;0.278;2023-03-22T14:56:59;97098.72;;;18.78;54.22